Vliegveldwaarnemingen Nederland - (AUTO) METAR

Luchtvaartmeteorologische informatie voor operationeel gebruik en vluchtvoorbereiding is beschikbaar op www.luchtvaartmeteo.nl.

ZCZC
SA191955 EHFS     VLISSINGEN AWS   NLD   8 m.
METAR EHFS 191955Z AUTO 33004KT 310V010 9999 SCT045/// 10/07 Q1019=

ZCZC
SA191955 EHSG     BSA   NLD   43 m.
METAR EHSG 191955Z AUTO 36010KT //// // NCD 08/07 Q1019 RE//=

ZCZC
SA192025 EHKD     DE KOOY/DE KOOY   NLD   1 m.
METAR EHKD 192025Z AUTO 06009KT 9999 NCD 11/08 Q1019
BLU NOSIG=

ZCZC
SA192025 EHFD     F3-FB-1   NLD   50 m.
METAR EHFD 192025Z AUTO /////KT 9999 NCD 08/07 Q1021=

ZCZC
SA192025 EHAM     AMSTERDAM/SCHIPHOL   NLD   -3 m.
METAR EHAM 192025Z 05003KT CAVOK 10/07 Q1019 NOSIG=

ZCZC
SA192025 EHVL     VLIELAND   NLD   10 m.
METAR EHVL 192025Z AUTO 07010KT 5000 BR NCD 10/09 Q1020 WHT=

ZCZC
SA192025 EHJR     K13-A   NLD   37 m.
METAR EHJR 192025Z AUTO 08012KT //// // ///////// 08/07 Q1020 RE//
W07/H4=

ZCZC
SA192025 EHLE     LELYSTAD/LELYSTAD   NLD   -3 m.
METAR EHLE 192025Z AUTO 01002KT 9999 NCD 09/06 Q1019=

ZCZC
SA192025 EHLW     LEEUWARDEN/LEEUWARDEN   NLD   1 m.
METAR EHLW 192025Z AUTO 07006KT 360V110 2900 BR NCD 08/07 Q1020 YLO=

ZCZC
SA192025 EHDL     ARNHEM/DEELEN   NLD   48 m.
METAR EHDL 192025Z AUTO 00000KT 9999 NCD 05/04 Q1019 BLU=

ZCZC
SA192025 EHGG     GRONINGEN/EELDE   NLD   5 m.
METAR EHGG 192025Z AUTO 06003KT 9000 NCD 09/07 Q1020 BECMG 7000=

ZCZC
SA192025 EHSC     LICHTEILAND GOEREE   NLD   22 m.
METAR EHSC 192025Z AUTO 05012KT 9000 ///////// 09/07 Q1019 W08/H4=

ZCZC
SA192025 EHSA     EURO PLATFORM   NLD   19 m.
METAR EHSA 192025Z AUTO 36007KT 8000 ///////// 09/07 Q1019 W08/H4=

ZCZC
SA192025 EHWO     WOENSDRECHT/WOENSDRECHT   NLD   19 m.
METAR EHWO 192025Z AUTO 10003KT 8000 BR SCT056 06/05 Q1019 BLU=

ZCZC
SA192025 EHRD     ROTTERDAM/THE HAGUE AIRPORT   NLD   -5 m.
METAR EHRD 192025Z AUTO 04003KT 9999 NSC 10/07 Q1019 BECMG NSW=

ZCZC
SA192025 EHGR     GILZE-RIJEN/GILZE-RIJEN   NLD   14 m.
METAR EHGR 192025Z AUTO 00000KT 9000 BR BKN081 08/06 Q1019
BLU NOSIG=

ZCZC
SA192025 EHEH     EINDHOVEN/EINDHOVEN   NLD   22 m.
METAR EHEH 192025Z AUTO 00000KT 4100 BR OVC160 06/06 Q1019
GRN NOSIG=

ZCZC
SA192025 EHVK     VOLKEL/VOLKEL   NLD   21 m.
METAR EHVK 192025Z AUTO 34002KT 2600 BR FEW083 07/07 Q1019 YLO=

ZCZC
SA192025 EHBK     MAASTRICHT/MAASTRICHT-AACHEN   NLD   114 m.
METAR EHBK 192025Z AUTO 06003KT 9999 NSC 07/05 Q1019 BECMG 7000=

ZCZC
SA192025 EHFZ     F16-A   NLD   43 m.
METAR EHFZ 192025Z NIL=

ZCZC
SA192025 EHKV     K14-FA-1C   NLD   41 m.
METAR EHKV 192025Z AUTO 09015KT 6000 NCD 08/07 Q1020=

ZCZC
SA192025 EHMG     L9-FF-1   NLD   44 m.
METAR EHMG 192025Z AUTO 09019KT 7000 NCD 09/07 Q1021=

ZCZC
SA192025 EHMA     AWG-1   NLD   40 m.
METAR EHMA 192025Z AUTO 07011KT 360V160 5000 BR NCD 09/07 Q1020=

ZCZC
SA192025 EHDV     D15-FA-1   NLD   42 m.
METAR EHDV 192025Z AUTO 11015KT 7000 NSC 08/07 Q1020=

ZCZC
SA192025 EHAK     A12-CPP   NLD   48 m.
METAR EHAK 192025Z AUTO VRB07KT 9999 NCD 08/07 Q1021=

ZCZC
SA192025 EHQE     HOORN-A   NLD   50 m.
METAR EHQE 192025Z AUTO 05008KT 9999 NCD 09/08 Q1019=

ZCZC
SA192025 EHJA     J6-A   NLD   45 m.
METAR EHJA 192025Z AUTO 10010KT 060V140 8000 NSC 08/07 Q1020=

ZCZC
SA192025 EHPG     P11-B   NLD   41 m.
METAR EHPG 192025Z AUTO 07006KT 8000 NSC 09/07 Q1019=

ZCZC
SA192025 EHHW     BUITENGAATS/BG-OHVS2      42 m.
METAR EHHW 192025Z AUTO 09006KT 050V170 9999 NCD 09/07 Q1021=

19/04/2021 22.30 uur LT